Disclaimer

Please do not use the information listed here in-flight or in-navigation, as they are not provided to us by the airports but are provided by volunteers, so they might be outdated.

Search


Regions


Airport information page

Radio informations:
Tower (TWR) - 124.3 MHz

Airport informations:
Latitude: 36° 38' 54.00" N
Longitude: 137° 11' 15.00" E
Elevation: 95 feet - 29 meters
Operating hours: Remarks
Operating agency: Civil government, landing fees and diplomatic clearance may be required
Timezone: UTC+9
Fuel: Jet fuel avaiable but type is unknown.

Runway information:
02/20 - 6562 x 150 feet< - >2000 x 46 meters

Recent METARs:
RJNT 190100Z VRB02KT 9999 -SHRA FEW007 SCT045 BKN080 12/09 Q1017
RJNT 190200Z VRB02KT 9999 -SHRA FEW007 BKN040 BKN080 12/09 Q1017
RJNT 190200Z VRB02KT 9999 -SHRA FEW007 BKN040 BKN080 12/09 Q1017

Airport on the map: